Latest Weather Observations for Cleve Airport

IDS60801

Issued at 12:02 pm CST Sunday 25 August 2019 (issued every 10 minutes, with the page automatically refreshed every 10 minutes)

About weather observations | Map of weather stations | Latest weather observations for SA | Other Formats
Station Details ID: 018116 Name: CLEVE AERODROME Lat: -33.71 Lon: 136.50 Height: 175.0 m
Data from the previous 72 hours. | See also: Recent months at Cleve Airport
Date/Time
CST
Temp
°C
App
Temp
°C
Dew
Point
°C
Rel
Hum
%
Delta-T
°C
Wind Press
QNH
hPa
Press
MSL
hPa
Rain since
9am
mm
Dir  Spd
km/h
Gust
km/h
Spd
kts
Gust
kts
25/12:00pm 10.6 6.9 4.3 65 2.8 ESE 13 20 7 11 1026.9 1027.0 0.0
25/11:30am 9.1 5.4 6.5 84 1.2 SE 15 22 8 12 1027.3 1027.4 0.0
25/11:00am 9.1 1.6 6.5 84 1.2 SSE 35 46 19 25 1027.3 1027.4 0.0
25/10:50am 11.5 6.8 6.0 69 2.6 SSE 20 43 11 23 1027.1 1027.2 0.0
25/10:30am 11.3 8.1 5.0 65 2.9 SE 11 19 6 10 1026.9 1027.0 0.0
25/10:00am 9.3 6.1 4.9 74 2.0 SE 11 17 6 9 1026.9 1027.0 0.0
25/09:30am 9.1 4.3 5.5 78 1.6 SSE 20 26 11 14 1026.9 1027.0 0.0
25/09:00am 9.0 5.4 5.2 77 1.7 SSW 13 20 7 11 1026.7 1026.8 0.0
25/08:30am 6.6 4.2 4.3 85 1.0 SW 6 7 3 4 1026.5 1026.6 0.0
25/08:00am 5.4 1.5 3.3 86 0.9 WSW 13 17 7 9 1026.2 1026.3 0.0
25/07:30am 5.4 1.0 2.9 84 1.0 W 15 17 8 9 1025.7 1025.8 0.0
25/07:00am 4.8 0.8 2.7 86 0.9 WSW 13 15 7 8 1025.5 1025.6 0.0
25/06:30am 4.8 0.3 2.3 84 1.0 WSW 15 22 8 12 1025.3 1025.4 0.0
25/06:00am 5.5 0.7 2.7 82 1.2 SW 17 24 9 13 1024.9 1024.9 0.0
25/05:30am 6.1 1.8 3.4 83 1.1 WSW 15 19 8 10 1024.7 1024.7 0.0
25/05:00am 6.4 2.2 3.9 84 1.1 WSW 15 19 8 10 1024.6 1024.6 0.0
25/04:30am 6.5 2.3 4.0 84 1.1 WSW 15 19 8 10 1024.5 1024.5 0.0
25/04:00am 6.8 3.1 4.6 86 1.0 WSW 13 17 7 9 1024.3 1024.3 0.0
25/03:30am 6.7 3.4 4.7 87 0.9 WSW 11 13 6 7 1024.1 1024.1 0.0
25/03:00am 6.7 3.8 4.7 87 0.9 W 9 11 5 6 1024.2 1024.2 0.0
25/02:30am 6.6 2.9 4.6 87 0.9 W 13 15 7 8 1024.4 1024.4 0.0
25/02:00am 6.5 2.8 4.7 88 0.8 W 13 15 7 8 1024.5 1024.5 0.0
25/01:30am 5.7 1.9 4.0 89 0.7 WSW 13 15 7 8 1024.6 1024.6 0.0
25/01:00am 5.5 1.7 4.0 90 0.6 WSW 13 15 7 8 1024.5 1024.5 0.0
25/12:30am 5.4 2.0 4.2 92 0.5 W 11 17 6 9 1024.4 1024.4 0.0
25/12:00am 4.8 2.0 3.1 89 0.7 WNW 7 9 4 5 1024.2 1024.2 0.0
 
Date/Time
CST
Temp
°C
App
Temp
°C
Dew
Point
°C
Rel
Hum
%
Delta-T
°C
Wind Press
QNH
hPa
Press
MSL
hPa
Rain since
9am
mm
Dir  Spd
km/h
Gust
km/h
Spd
kts
Gust
kts
24/11:30pm 5.9 2.5 4.2 89 0.7 WSW 11 13 6 7 1024.3 1024.3 0.0
24/11:00pm 6.4 3.5 4.6 88 0.8 SW 9 11 5 6 1024.4 1024.4 0.0
24/10:30pm 7.1 3.2 5.4 89 0.8 WSW 15 19 8 10 1024.2 1024.2 0.0
24/10:00pm 6.5 2.9 4.8 89 0.7 WSW 13 15 7 8 1024.1 1024.1 0.0
24/09:30pm 7.1 4.3 5.1 87 0.9 SSW 9 13 5 7 1023.8 1023.9 0.0
24/09:00pm 6.8 3.5 4.8 87 0.9 WSW 11 13 6 7 1023.6 1023.7 0.0
24/08:30pm 8.0 4.5 5.3 83 1.2 SW 13 20 7 11 1023.2 1023.3 0.0
24/08:00pm 8.4 4.9 5.5 82 1.3 SSW 13 17 7 9 1022.8 1022.9 0.0
24/07:30pm 8.3 4.8 5.4 82 1.3 SSW 13 17 7 9 1022.4 1022.5 0.0
24/07:00pm 8.7 5.2 5.6 81 1.4 S 13 19 7 10 1021.9 1022.0 0.0
24/06:30pm 9.6 5.4 5.6 76 1.8 S 17 20 9 11 1021.5 1021.6 0.0
24/06:00pm 10.3 5.7 5.5 72 2.2 S 19 24 10 13 1021.1 1021.2 0.0
24/05:30pm 11.3 5.0 5.6 68 2.7 S 28 35 15 19 1020.8 1020.9 0.0
24/05:00pm 12.1 5.8 5.9 66 2.9 S 28 35 15 19 1020.3 1020.3 0.0
24/04:30pm 12.9 6.0 4.8 58 3.8 S 30 39 16 21 1019.9 1019.9 0.0
24/04:00pm 13.3 6.2 5.7 60 3.6 SSE 32 39 17 21 1019.6 1019.6 0.0
24/03:30pm 12.7 5.3 4.9 59 3.6 S 33 41 18 22 1019.3 1019.3 0.0
24/03:00pm 12.8 5.7 5.7 62 3.4 S 32 41 17 22 1019.1 1019.1 0.0
24/02:30pm 13.0 6.5 6.6 65 3.1 S 30 41 16 22 1018.7 1018.7 0.0
24/02:00pm 13.4 7.5 7.4 67 3.0 S 28 37 15 20 1018.5 1018.5 0.0
24/01:30pm 13.2 8.0 7.2 67 2.9 S 24 33 13 18 1018.5 1018.5 0.0
24/01:00pm 13.0 7.2 7.9 71 2.5 S 28 37 15 20 1018.5 1018.5 0.0
24/12:30pm 14.4 9.6 9.0 70 2.8 S 24 30 13 16 1018.4 1018.4 0.0
24/12:00pm 13.8 8.9 8.4 70 2.7 S 24 33 13 18 1018.4 1018.4 0.0
24/11:30am 14.7 9.3 8.2 65 3.3 SSW 26 35 14 19 1018.2 1018.2 0.0
24/11:00am 14.1 9.7 9.1 72 2.6 SW 22 30 12 16 1018.2 1018.2 0.0
24/10:30am 14.0 9.3 9.4 74 2.4 SW 24 33 13 18 1017.8 1017.9 0.0
24/10:00am 14.2 9.8 7.5 64 3.3 W 20 30 11 16 1017.5 1017.6 0.0
24/09:30am 14.3 9.7 6.6 60 3.8 W 20 30 11 16 1017.2 1017.3 0.0
24/09:00am 14.1 8.7 4.7 53 4.4 WNW 22 30 12 16 1017.0 1017.1 0.0
24/08:30am 13.3 7.4 1.9 46 5.0 WNW 22 33 12 18 1016.8 1016.9 0.0
24/08:00am 12.7 6.0 1.7 47 4.8 NW 26 37 14 20 1016.3 1016.4 0.0
24/07:30am 12.8 4.8 1.5 46 4.9 NW 33 44 18 24 1015.7 1015.8 0.0
24/07:00am 13.6 5.7 1.3 43 5.3 NW 32 44 17 24 1015.1 1015.1 0.0
24/06:30am 14.6 6.5 1.2 40 5.8 NNW 33 46 18 25 1014.5 1014.5 0.0
24/06:22am 14.6 6.5 1.2 40 5.8 NNW 33 52 18 28 1014.4 1014.4 0.0
24/06:00am 14.7 6.6 0.9 39 6.0 NNW 33 50 18 27 1014.0 1014.0 0.0
24/05:30am 14.6 6.1 1.2 40 5.8 NNW 35 52 19 28 1013.8 1013.8 0.0
24/05:00am 13.7 4.5 1.0 42 5.5 N 39 52 21 28 1013.5 1013.5 0.0
24/04:30am 13.2 4.4 1.2 44 5.2 N 37 46 20 25 1013.5 1013.5 0.0
24/04:00am 13.2 4.4 1.2 44 5.2 N 37 48 20 26 1013.6 1013.6 0.0
24/03:30am 13.5 4.7 1.2 43 5.3 N 37 50 20 27 1013.8 1013.8 0.0
24/03:00am 13.8 5.3 0.8 41 5.6 N 35 46 19 25 1014.0 1014.0 0.0
24/02:30am 13.5 4.9 0.5 41 5.5 N 35 46 19 25 1014.2 1014.2 0.0
24/02:00am 13.1 4.5 0.5 42 5.3 N 35 44 19 24 1014.6 1014.6 0.0
24/01:30am 13.3 5.1 0.3 41 5.5 N 33 41 18 22 1014.8 1014.8 0.0
24/01:00am 13.8 6.1 0.1 39 5.8 N 30 39 16 21 1015.3 1015.3 0.0
24/12:30am 13.4 5.8 0.4 41 5.5 N 30 39 16 21 1015.6 1015.7 0.0
24/12:00am 13.8 6.6 0.5 40 5.7 N 28 37 15 20 1016.0 1016.1 0.0
 
Date/Time
CST
Temp
°C
App
Temp
°C
Dew
Point
°C
Rel
Hum
%
Delta-T
°C
Wind Press
QNH
hPa
Press
MSL
hPa
Rain since
9am
mm
Dir  Spd
km/h
Gust
km/h
Spd
kts
Gust
kts
23/11:30pm 14.9 7.6 0.0 36 6.3 N 28 37 15 20 1016.2 1016.3 0.0
23/11:00pm 14.6 8.1 0.5 38 6.1 N 24 32 13 17 1016.8 1016.9 0.0
23/10:30pm 13.9 7.8 0.5 40 5.7 N 22 28 12 15 1017.1 1017.2 0.0
23/10:00pm 14.5 8.4 0.4 38 6.0 N 22 26 12 14 1017.4 1017.5 0.0
23/09:30pm 14.6 8.6 0.8 39 6.0 N 22 30 12 16 1017.5 1017.6 0.0
23/09:00pm 14.4 8.0 1.0 40 5.8 N 24 32 13 17 1017.6 1017.7 0.0
23/08:30pm 14.5 7.8 1.4 41 5.7 N 26 32 14 17 1017.7 1017.8 0.0
23/08:00pm 14.5 8.3 2.4 44 5.4 N 24 30 13 16 1017.9 1018.0 0.0
23/07:30pm 15.0 9.4 3.2 45 5.4 N 22 28 12 15 1017.9 1018.0 0.0
23/07:00pm 15.0 10.0 3.8 47 5.2 N 19 22 10 12 1017.8 1017.9 0.0
23/06:30pm 14.8 10.8 3.0 45 5.3 NNW 13 17 7 9 1017.8 1017.9 0.0
23/06:00pm 17.2 13.1 2.4 37 6.8 NNW 13 17 7 9 1017.8 1017.9 0.0
23/05:30pm 18.9 13.5 2.3 33 7.7 NNW 20 30 11 16 1017.7 1017.8 0.0
23/05:00pm 19.7 13.9 2.1 31 8.2 NW 22 35 12 19 1017.6 1017.7 0.0
23/04:30pm 20.0 13.4 1.9 30 8.4 NNW 26 35 14 19 1017.4 1017.5 0.0
23/04:00pm 20.3 13.6 1.7 29 8.6 NNW 26 37 14 20 1017.6 1017.7 0.0
23/03:30pm 20.1 12.6 1.5 29 8.5 NNW 30 44 16 24 1017.9 1018.0 0.0
23/03:00pm 20.2 13.1 1.6 29 8.6 NNW 28 43 15 23 1018.3 1018.3 0.0
23/02:30pm 20.7 13.6 1.6 28 8.8 NW 28 43 15 23 1018.7 1018.7 0.0
23/02:00pm 20.2 13.3 2.5 31 8.3 NNW 28 39 15 21 1019.0 1019.0 0.0
23/01:30pm 19.5 12.6 2.8 33 7.8 NNW 28 41 15 22 1019.5 1019.5 0.0
23/01:00pm 19.6 13.1 4.5 37 7.3 NW 28 39 15 21 1020.3 1020.3 0.0
23/12:30pm 19.3 13.5 4.6 38 7.1 NW 24 33 13 18 1020.9 1021.0 0.0
23/12:00pm 18.6 13.3 4.8 40 6.7 NW 22 32 12 17 1021.6 1021.7 0.0
23/11:30am 17.9 11.8 4.8 42 6.3 NW 26 37 14 20 1022.1 1022.2 0.0
23/11:00am 17.1 11.8 5.1 45 5.8 NW 22 33 12 18 1022.7 1022.8 0.0
23/10:30am 16.8 10.9 5.7 48 5.4 NW 26 32 14 17 1023.3 1023.4 0.0
23/10:00am 15.2 10.8 7.5 60 3.9 NNW 20 28 11 15 1023.6 1023.7 0.0
23/09:30am 13.7 9.4 6.8 63 3.3 NNW 19 30 10 16 1024.2 1024.2 0.0
23/09:00am 12.0 7.5 6.1 67 2.8 N 19 22 10 12 1024.4 1024.4 0.0
23/08:30am 10.6 5.8 5.8 72 2.2 N 20 28 11 15 1024.2 1024.2 0.0
23/08:00am 9.6 3.7 5.6 76 1.8 N 26 30 14 16 1023.9 1024.0 0.0
23/07:30am 8.5 3.3 5.3 80 1.4 NNW 22 24 12 13 1023.9 1024.0 0.0
23/07:00am 7.4 2.7 5.0 85 1.1 NNW 19 22 10 12 1023.9 1024.0 0.0
23/06:30am 7.8 3.2 5.4 85 1.1 NNW 19 26 10 14 1023.9 1024.0 0.0
23/06:00am 7.8 3.0 5.8 87 0.9 NNW 20 24 11 13 1023.9 1024.0 0.0
23/05:30am 7.4 2.8 5.4 87 0.9 N 19 22 10 12 1023.9 1024.0 0.0
23/05:00am 7.1 2.8 5.1 87 0.9 NNE 17 20 9 11 1023.9 1024.0 0.0
23/04:30am 7.7 3.5 5.5 86 1.0 N 17 22 9 12 1023.9 1024.0 0.0
23/04:00am 7.9 3.3 5.5 85 1.1 N 19 22 10 12 1023.9 1024.0 0.0
23/03:30am 8.0 4.5 5.6 85 1.1 NNW 13 17 7 9 1024.3 1024.3 0.0
23/03:00am 7.6 5.3 5.6 87 0.9 NNE 7 9 4 5 1024.8 1024.8 0.0
23/02:30am 6.7 4.4 4.9 88 0.8 NNE 6 13 3 7 1025.3 1025.4 0.0
23/02:00am 6.6 4.2 4.4 86 1.0 ENE 6 7 3 4 1025.5 1025.6 0.0
23/01:30am 7.3 4.4 4.8 84 1.1 E 9 11 5 6 1025.9 1026.0 0.0
23/01:00am 7.8 4.6 5.1 83 1.2 ENE 11 15 6 8 1026.3 1026.4 0.0
23/12:30am 8.9 4.6 6.9 87 0.9 NE 19 20 10 11 1026.6 1026.7 0.0
23/12:00am 6.7 2.8 5.3 91 0.6 NE 15 17 8 9 1026.9 1027.0 0.0
 
Date/Time
CST
Temp
°C
App
Temp
°C
Dew
Point
°C
Rel
Hum
%
Delta-T
°C
Wind Press
QNH
hPa
Press
MSL
hPa
Rain since
9am
mm
Dir  Spd
km/h
Gust
km/h
Spd
kts
Gust
kts
22/11:30pm 6.1 2.4 4.6 90 0.6 NNE 13 13 7 7 1027.2 1027.3 0.0
22/11:00pm 6.7 3.1 4.9 88 0.8 NNE 13 17 7 9 1027.5 1027.6 0.0
22/10:30pm 6.5 1.7 4.8 89 0.7 NNE 19 20 10 11 1027.6 1027.7 0.0
22/10:00pm 6.7 1.9 4.7 87 0.9 NNE 19 20 10 11 1027.7 1027.8 0.0
22/09:30pm 6.8 2.8 5.1 89 0.7 NNE 15 17 8 9 1027.8 1027.9 0.0
22/09:00pm 6.7 2.7 5.0 89 0.7 NNE 15 15 8 8 1028.0 1028.1 0.0
22/08:30pm 6.8 3.2 5.1 89 0.7 NE 13 15 7 8 1027.9 1028.0 0.0
22/08:00pm 7.0 3.8 5.0 87 0.9 NE 11 13 6 7 1027.7 1027.8 0.0
22/07:30pm 6.8 3.1 4.6 86 1.0 NE 13 13 7 7 1027.8 1027.9 0.0
22/07:00pm 7.6 5.1 4.7 82 1.3 ENE 7 11 4 6 1027.9 1028.0 0.0
22/06:30pm 9.4 6.2 5.2 75 1.9 ESE 11 13 6 7 1027.9 1028.0 0.0
22/06:00pm 10.8 7.0 5.6 70 2.4 ESE 15 19 8 10 1027.9 1028.0 0.0
22/05:30pm 12.1 7.5 5.7 65 3.0 SE 19 24 10 13 1028.0 1028.1 0.0
22/05:00pm 13.0 8.4 5.7 61 3.5 SE 19 24 10 13 1027.9 1028.0 0.0
22/04:30pm 14.0 9.9 6.1 59 3.8 ESE 17 22 9 12 1028.1 1028.2 0.0
22/04:00pm 14.5 10.0 6.3 58 4.0 SSE 19 24 10 13 1027.8 1027.9 0.0
22/03:30pm 14.6 11.3 6.2 57 4.0 SE 13 22 7 12 1027.8 1027.9 0.0
22/03:00pm 14.8 11.8 5.9 55 4.3 SSE 11 19 6 10 1027.9 1028.0 0.0
22/02:30pm 14.2 11.2 6.1 58 3.9 SSE 11 20 6 11 1028.2 1028.3 0.0
22/02:00pm 14.2 10.1 6.3 59 3.8 SSE 17 28 9 15 1028.3 1028.4 0.0
22/01:30pm 15.0 11.5 7.1 59 3.9 SE 15 24 8 13 1028.8 1028.9 0.0
22/01:00pm 14.1 10.8 6.5 60 3.7 S 13 19 7 10 1029.1 1029.2 0.0
22/12:30pm 14.4 11.1 6.5 59 3.8 S 13 22 7 12 1029.3 1029.4 0.0

Other formats

Comma delimited format used in spreadsheet applications
http://www.bom.gov.au/fwo/IDS60801/IDS60801.94662.axf

JavaScript Object Notation format (JSON) in row-major order
http://www.bom.gov.au/fwo/IDS60801/IDS60801.94662.json

Data quality

Most of these data are generated automatically and are frequently updated. Quality checks on data are not normally performed. It is possible for incorrect values to appear. Refer to information at About Latest Weather Observations and please check the disclaimer before using these data.